Time;durP1;ratioP1;P1;durP2;ratioP2;P2;SDS_P1;SDS_P2;PMS_P1;PMS_P2;Temp;Humidity;BMP_temperature;BMP_pressure;BME280_temperature;BME280_humidity;BME280_pressure;Samples;Min_cycle;Max_cycle;Signal;HPM_P1;HPM_P2
2022/04/28 00:01:01;;;;;;;29.83;17.75;;;10.40;99.90;;;;;;5008642;28;20233;-43
2022/04/28 00:03:28;;;;;;;28.90;18.50;;;10.40;99.90;;;;;;5008428;28;20229;-43
2022/04/28 00:05:57;;;;;;;24.85;17.90;;;10.20;99.90;;;;;;5008256;28;20458;-42
2022/04/28 00:08:24;;;;;;;23.65;16.50;;;10.20;99.90;;;;;;5007974;28;20269;-42
2022/04/28 00:10:52;;;;;;;25.35;16.73;;;10.10;99.90;;;;;;5008545;28;20551;-47
2022/04/28 00:13:19;;;;;;;22.55;15.82;;;10.10;99.90;;;;;;5009373;28;20241;-42
2022/04/28 00:15:48;;;;;;;26.40;18.95;;;10.10;99.90;;;;;;5009050;28;20301;-44
2022/04/28 00:18:15;;;;;;;25.35;17.35;;;10.10;99.90;;;;;;5009305;28;20485;-47
2022/04/28 00:20:42;;;;;;;23.85;16.10;;;10.10;99.90;;;;;;5008155;28;20528;-42
2022/04/28 00:23:09;;;;;;;26.00;17.33;;;10.00;99.90;;;;;;5008122;28;20279;-43
2022/04/28 00:25:37;;;;;;;22.08;16.33;;;10.00;99.90;;;;;;5008168;28;20344;-43
2022/04/28 00:28:04;;;;;;;28.15;18.15;;;9.90;99.90;;;;;;5009357;28;20422;-42
2022/04/28 00:30:31;;;;;;;25.25;17.35;;;9.90;99.90;;;;;;5009008;28;20222;-43
2022/04/28 00:32:58;;;;;;;24.05;19.17;;;9.80;99.90;;;;;;5009073;28;20206;-43
2022/04/28 00:35:26;;;;;;;25.63;16.75;;;9.80;99.90;;;;;;5009204;28;20207;-47
2022/04/28 00:37:53;;;;;;;24.08;16.83;;;9.70;99.90;;;;;;5008308;28;20276;-44
2022/04/28 00:40:20;;;;;;;28.48;17.52;;;9.50;99.90;;;;;;5009295;28;20468;-47
2022/04/28 00:42:48;;;;;;;27.27;18.10;;;9.20;99.90;;;;;;5004464;28;20264;-46
2022/04/28 00:45:15;;;;;;;25.60;16.48;;;9.20;99.90;;;;;;5006132;28;20477;-44
2022/04/28 00:50:40;;;;;;;27.50;19.92;;;9.20;99.90;;;;;;5007308;28;20457;-43
2022/04/28 00:53:13;;;;;;;27.27;17.35;;;9.30;99.90;;;;;;5005956;28;20228;-46
2022/04/28 00:55:41;;;;;;;22.98;17.25;;;9.40;99.90;;;;;;5005086;28;20256;-45
2022/04/28 00:58:10;;;;;;;25.00;18.38;;;9.40;99.90;;;;;;5008848;28;20272;-46
2022/04/28 01:00:39;;;;;;;21.85;17.42;;;9.40;99.90;;;;;;5004516;28;20408;-44
2022/04/28 01:03:10;;;;;;;19.95;17.70;;;9.30;99.90;;;;;;5006732;28;20198;-44
2022/04/28 01:05:38;;;;;;;29.63;18.80;;;9.20;99.90;;;;;;5005137;28;20245;-45
2022/04/28 01:08:06;;;;;;;22.48;18.05;;;9.20;99.90;;;;;;5006595;28;20225;-45
2022/04/28 01:10:35;;;;;;;28.00;18.55;;;9.10;99.90;;;;;;5004748;28;20544;-43
2022/04/28 01:13:03;;;;;;;29.50;21.27;;;9.00;99.90;;;;;;5007237;28;20230;-43
2022/04/28 01:15:44;;;;;;;22.35;18.70;;;9.00;99.90;;;;;;5004356;28;20210;-43
2022/04/28 01:18:12;;;;;;;24.42;17.90;;;9.00;99.90;;;;;;5005971;28;20544;-43
2022/04/28 01:20:40;;;;;;;25.10;20.33;;;9.00;99.90;;;;;;5004288;28;20217;-43
2022/04/28 01:23:08;;;;;;;32.22;21.05;;;9.00;99.90;;;;;;5005676;28;20198;-45
2022/04/28 01:25:35;;;;;;;26.08;19.65;;;8.90;99.90;;;;;;5004042;28;20236;-43
2022/04/28 01:28:03;;;;;;;27.83;18.92;;;8.90;99.90;;;;;;5006356;28;20228;-43
2022/04/28 01:30:30;;;;;;;30.40;20.40;;;8.90;99.90;;;;;;5005048;28;20210;-43
2022/04/28 01:32:58;;;;;;;25.77;19.13;;;8.80;99.90;;;;;;5004880;28;20237;-43
2022/04/28 01:35:25;;;;;;;23.85;17.55;;;8.80;99.90;;;;;;5004966;28;20252;-44
2022/04/28 01:37:52;;;;;;;21.95;17.80;;;8.60;99.90;;;;;;5003791;28;20462;-44
2022/04/28 01:40:20;;;;;;;22.70;16.08;;;8.50;99.90;;;;;;5005406;28;20297;-44
2022/04/28 01:42:48;;;;;;;24.50;18.52;;;8.50;99.90;;;;;;5004269;28;20252;-45
2022/04/28 01:45:15;;;;;;;25.55;17.92;;;8.50;99.90;;;;;;5005625;28;20198;-44
2022/04/28 01:47:43;;;;;;;21.25;17.38;;;8.50;99.90;;;;;;5007972;28;20225;-47
2022/04/28 01:50:11;;;;;;;36.15;17.95;;;8.50;99.90;;;;;;5007899;28;20202;-44
2022/04/28 01:55:25;;;;;;;26.77;18.13;;;8.30;99.90;;;;;;5003798;28;20244;-42
2022/04/28 01:57:56;;;;;;;28.35;19.17;;;8.30;99.90;;;;;;5003930;28;20217;-44
2022/04/28 02:00:23;;;;;;;27.83;17.40;;;8.30;99.90;;;;;;5003541;28;20349;-47
2022/04/28 02:02:50;;;;;;;26.52;19.52;;;8.30;99.90;;;;;;5003853;28;20201;-43
2022/04/28 02:05:18;;;;;;;28.13;17.48;;;8.20;99.90;;;;;;5004939;28;20227;-43
2022/04/28 02:07:45;;;;;;;26.00;18.45;;;8.20;99.90;;;;;;5004315;28;20255;-44
2022/04/28 02:10:12;;;;;;;26.13;17.90;;;8.10;99.90;;;;;;5004935;28;20205;-42
2022/04/28 02:12:39;;;;;;;28.10;18.98;;;8.00;99.90;;;;;;5003656;28;20269;-42
2022/04/28 02:15:07;;;;;;;26.83;18.48;;;8.00;99.90;;;;;;5003644;28;20256;-47
2022/04/28 02:17:37;;;;;;;22.95;19.40;;;8.00;99.90;;;;;;5004077;28;20225;-44
2022/04/28 02:20:06;;;;;;;28.58;21.20;;;8.00;99.90;;;;;;5004571;28;20549;-42
2022/04/28 02:22:34;;;;;;;31.35;22.48;;;8.00;99.90;;;;;;5003848;28;20198;-46
2022/04/28 02:25:02;;;;;;;28.38;17.73;;;7.90;99.90;;;;;;5004962;28;20500;-46
2022/04/28 02:27:29;;;;;;;26.40;18.25;;;7.80;99.90;;;;;;5003664;28;20205;-46
2022/04/28 02:29:57;;;;;;;29.33;21.50;;;7.90;99.90;;;;;;5019026;28;20202;-44
2022/04/28 02:32:24;;;;;;;25.67;18.55;;;7.80;99.90;;;;;;5004382;28;20212;-43
2022/04/28 02:34:51;;;;;;;27.67;20.55;;;7.80;99.90;;;;;;5003893;28;20201;-45
2022/04/28 02:37:18;;;;;;;30.80;21.80;;;7.80;99.90;;;;;;5004849;28;20404;-42
2022/04/28 02:39:45;;;;;;;23.77;18.52;;;7.80;99.90;;;;;;5003584;28;20202;-43
2022/04/28 02:42:12;;;;;;;24.13;19.25;;;7.80;99.90;;;;;;5004753;28;20197;-45
2022/04/28 02:44:40;;;;;;;25.63;21.33;;;7.70;99.90;;;;;;5003410;28;20490;-42
2022/04/28 02:47:07;;;;;;;21.45;18.80;;;7.70;99.90;;;;;;5008769;28;20205;-44
2022/04/28 02:49:35;;;;;;;26.65;21.02;;;7.40;99.90;;;;;;5006467;28;20283;-44
2022/04/28 02:52:02;;;;;;;25.13;20.88;;;7.40;99.90;;;;;;5004473;28;20559;-46
2022/04/28 02:54:30;;;;;;;28.17;20.58;;;7.40;99.90;;;;;;5003489;28;20296;-46
2022/04/28 02:56:57;;;;;;;28.63;21.10;;;7.40;99.90;;;;;;5003959;28;20241;-43
2022/04/28 02:59:24;;;;;;;26.73;21.63;;;7.10;99.90;;;;;;5003827;28;20227;-43
2022/04/28 03:01:51;;;;;;;31.35;21.65;;;7.10;99.90;;;;;;5003353;28;20603;-42
2022/04/28 03:04:19;;;;;;;31.73;24.40;;;7.00;99.90;;;;;;5004265;28;20196;-45
2022/04/28 03:12:18;;;;;;;30.83;21.83;;;7.00;99.90;;;;;;5005309;28;20239;-44
2022/04/28 03:14:45;;;;;;;32.15;22.77;;;6.90;99.90;;;;;;5002739;28;20504;-43
2022/04/28 03:17:13;;;;;;;24.05;21.45;;;7.00;99.90;;;;;;5005009;28;20405;-48
2022/04/28 03:19:40;;;;;;;27.30;21.65;;;7.00;99.90;;;;;;5002539;28;20268;-46
2022/04/28 03:22:08;;;;;;;32.05;21.67;;;6.90;99.90;;;;;;5004687;28;20485;-44
2022/04/28 03:24:35;;;;;;;26.85;21.48;;;6.70;99.90;;;;;;5003243;28;20227;-48
2022/04/28 03:27:04;;;;;;;25.88;19.60;;;6.90;99.90;;;;;;5004389;28;20426;-45
2022/04/28 03:29:31;;;;;;;31.67;20.92;;;7.00;99.90;;;;;;5003288;28;20217;-44
2022/04/28 03:31:58;;;;;;;31.98;22.13;;;6.80;99.90;;;;;;5003526;28;20212;-43
2022/04/28 03:34:25;;;;;;;31.52;20.35;;;6.80;99.90;;;;;;5004204;28;20238;-47
2022/04/28 03:36:52;;;;;;;30.27;21.65;;;6.70;99.90;;;;;;5002708;28;20531;-44
2022/04/28 03:39:20;;;;;;;26.48;19.17;;;6.80;99.90;;;;;;5004621;28;20251;-44
2022/04/28 03:41:47;;;;;;;26.10;18.75;;;6.90;99.90;;;;;;5002800;28;20439;-48
2022/04/28 03:44:14;;;;;;;30.02;20.52;;;6.90;99.90;;;;;;5004653;28;20244;-43
2022/04/28 03:46:41;;;;;;;25.58;19.00;;;6.90;99.90;;;;;;5004644;28;20209;-48
2022/04/28 03:49:09;;;;;;;24.80;21.38;;;6.90;99.90;;;;;;5006425;28;20217;-44
2022/04/28 03:51:36;;;;;;;29.40;21.42;;;7.00;99.90;;;;;;5003108;28;20247;-45
2022/04/28 03:54:03;;;;;;;32.33;20.75;;;6.80;99.90;;;;;;5004179;28;20205;-45
2022/04/28 03:56:31;;;;;;;25.02;18.75;;;6.70;99.90;;;;;;5003457;28;20205;-44
2022/04/28 03:59:01;;;;;;;26.55;21.02;;;6.70;99.90;;;;;;5003387;28;20229;-43
2022/04/28 04:01:28;;;;;;;23.67;18.48;;;6.80;99.90;;;;;;5006482;28;20259;-44
2022/04/28 04:03:55;;;;;;;34.63;20.02;;;6.70;99.90;;;;;;5011969;28;20193;-44
2022/04/28 04:06:23;;;;;;;17.63;15.68;;;6.80;99.90;;;;;;5016841;28;20255;-47
2022/04/28 04:08:50;;;;;;;24.70;19.77;;;6.80;99.90;;;;;;5015249;28;20423;-43
2022/04/28 04:11:17;;;;;;;23.15;17.98;;;6.90;99.90;;;;;;5016977;28;20200;-50
2022/04/28 04:13:46;;;;;;;22.83;17.38;;;7.10;99.90;;;;;;5018719;28;20414;-43
2022/04/28 04:16:13;;;;;;;24.98;17.38;;;7.10;99.90;;;;;;5019682;28;20232;-43
2022/04/28 04:18:40;;;;;;;20.58;16.92;;;7.10;99.90;;;;;;5023385;28;20466;-47
2022/04/28 04:21:08;;;;;;;27.70;15.43;;;7.20;99.90;;;;;;5023602;28;20228;-47
2022/04/28 04:23:35;;;;;;;19.60;14.75;;;7.30;99.90;;;;;;5012019;28;20205;-45
2022/04/28 04:26:02;;;;;;;20.83;13.77;;;7.40;99.90;;;;;;5006230;28;20223;-44
2022/04/28 04:28:29;;;;;;;21.40;16.75;;;7.50;99.90;;;;;;5023513;28;20423;-47
2022/04/28 04:33:43;;;;;;;20.30;15.15;;;7.80;99.90;;;;;;5023600;28;20200;-45
2022/04/28 04:36:10;;;;;;;17.90;14.43;;;7.90;99.90;;;;;;5023379;28;20204;-47
2022/04/28 04:38:37;;;;;;;17.30;13.85;;;7.90;99.90;;;;;;5019296;28;20475;-46
2022/04/28 04:41:05;;;;;;;17.52;13.15;;;8.30;99.90;;;;;;5016758;28;20224;-48
2022/04/28 04:43:32;;;;;;;18.17;14.65;;;8.50;99.90;;;;;;5022291;28;20247;-45
2022/04/28 04:45:59;;;;;;;18.35;13.40;;;8.70;99.90;;;;;;5022834;28;20701;-47
2022/04/28 04:48:27;;;;;;;16.45;13.65;;;8.90;99.90;;;;;;5019432;28;20271;-48
2022/04/28 04:50:55;;;;;;;17.13;12.40;;;9.10;99.90;;;;;;5023049;28;20216;-49
2022/04/28 04:53:22;;;;;;;15.13;13.52;;;9.20;99.90;;;;;;5022968;28;20260;-44
2022/04/28 04:55:49;;;;;;;14.25;12.48;;;9.40;99.90;;;;;;5023040;28;20291;-46
2022/04/28 04:58:16;;;;;;;16.58;12.48;;;9.50;99.90;;;;;;5021245;28;20425;-43
2022/04/28 05:00:44;;;;;;;17.15;13.43;;;9.80;99.90;;;;;;5018317;28;20229;-43
2022/04/28 05:03:13;;;;;;;15.82;11.18;;;10.00;99.90;;;;;;5009066;28;20207;-47
2022/04/28 05:05:43;;;;;;;15.95;11.55;;;10.20;99.90;;;;;;5006160;28;20203;-47
2022/04/28 05:08:12;;;;;;;12.55;11.20;;;10.50;99.90;;;;;;5011957;28;20261;-43
2022/04/28 05:10:39;;;;;;;23.83;12.90;;;10.90;99.90;;;;;;5013052;28;20220;-51
2022/04/28 05:13:08;;;;;;;13.00;10.90;;;11.10;99.90;;;;;;5041505;28;20202;-44
2022/04/28 05:15:35;;;;;;;16.63;11.35;;;11.40;99.90;;;;;;5041026;28;20447;-45
2022/04/28 05:18:02;;;;;;;12.00;9.50;;;11.70;99.90;;;;;;5032308;28;20299;-46
2022/04/28 05:20:29;;;;;;;12.43;10.65;;;11.90;99.90;;;;;;5021264;28;20219;-45
2022/04/28 05:22:56;;;;;;;13.05;10.85;;;12.00;99.90;;;;;;5021465;28;20208;-48
2022/04/28 05:25:23;;;;;;;17.92;9.75;;;12.40;99.90;;;;;;5020718;28;20208;-45
2022/04/28 05:27:51;;;;;;;11.55;8.77;;;12.60;99.90;;;;;;5012923;28;20380;-48
2022/04/28 05:30:19;;;;;;;10.60;7.88;;;12.70;99.90;;;;;;5021803;28;20203;-46
2022/04/28 05:32:46;;;;;;;12.45;7.90;;;13.00;99.90;;;;;;5021872;28;20263;-51
2022/04/28 05:35:14;;;;;;;10.60;8.35;;;13.40;99.90;;;;;;5022038;28;20472;-43
2022/04/28 05:37:41;;;;;;;9.90;7.70;;;13.50;99.90;;;;;;5014720;28;20559;-48
2022/04/28 05:40:11;;;;;;;11.18;8.57;;;13.70;99.90;;;;;;5020021;28;20263;-46
2022/04/28 05:45:42;;;;;;;12.30;7.88;;;13.90;99.90;;;;;;5022530;28;20197;-44
2022/04/28 05:48:10;;;;;;;7.97;6.20;;;14.00;99.90;;;;;;5022073;28;20419;-45
2022/04/28 05:50:41;;;;;;;8.75;7.13;;;13.80;99.90;;;;;;5021044;28;20579;-44
2022/04/28 05:53:09;;;;;;;11.48;7.28;;;13.60;99.90;;;;;;5021555;28;20220;-45
2022/04/28 05:55:37;;;;;;;9.15;7.63;;;13.50;99.90;;;;;;5020963;28;20197;-46
2022/04/28 05:58:05;;;;;;;6.90;6.20;;;13.60;99.90;;;;;;5021364;28;20216;-44
2022/04/28 06:00:34;;;;;;;8.55;7.22;;;13.50;99.90;;;;;;5020594;28;20236;-47
2022/04/28 06:03:02;;;;;;;13.40;7.68;;;13.50;99.90;;;;;;5021327;28;20299;-46
2022/04/28 06:05:29;;;;;;;9.00;7.78;;;13.50;99.90;;;;;;5016115;28;20204;-45
2022/04/28 06:07:56;;;;;;;9.10;7.88;;;13.50;99.90;;;;;;5017887;28;20225;-46
2022/04/28 06:10:24;;;;;;;8.75;7.28;;;13.50;99.90;;;;;;5021211;28;20365;-48
2022/04/28 06:12:51;;;;;;;7.30;5.97;;;13.40;99.90;;;;;;5021592;28;20209;-46
2022/04/28 06:15:18;;;;;;;12.73;8.55;;;13.60;99.90;;;;;;5020160;28;20209;-43
2022/04/28 06:17:45;;;;;;;10.63;7.18;;;14.00;99.90;;;;;;5021404;28;20216;-48
2022/04/28 06:20:12;;;;;;;8.27;6.05;;;14.50;99.90;;;;;;5021752;28;20217;-47
2022/04/28 06:22:44;;;;;;;10.55;7.38;;;14.60;99.90;;;;;;5021572;28;20221;-46
2022/04/28 06:25:11;;;;;;;7.28;6.57;;;15.00;99.90;;;;;;5021455;28;20445;-45
2022/04/28 06:27:39;;;;;;;11.20;6.68;;;15.40;99.90;;;;;;5020336;28;20248;-46
2022/04/28 06:30:07;;;;;;;7.05;6.35;;;15.60;99.90;;;;;;5021335;28;20209;-46
2022/04/28 06:32:34;;;;;;;8.03;5.93;;;16.30;99.90;;;;;;5021237;28;20202;-44
2022/04/28 06:35:02;;;;;;;9.50;6.97;;;16.80;99.90;;;;;;5020674;28;20439;-48
2022/04/28 06:37:30;;;;;;;9.27;6.40;;;17.00;99.90;;;;;;5020423;28;20716;-45
2022/04/28 06:39:57;;;;;;;6.40;5.80;;;16.90;99.90;;;;;;5019255;28;20519;-47
2022/04/28 06:42:24;;;;;;;7.87;6.30;;;17.10;99.90;;;;;;5020387;28;20682;-45
2022/04/28 06:44:52;;;;;;;7.33;6.63;;;17.30;99.90;;;;;;5020004;28;20438;-47
2022/04/28 06:47:21;;;;;;;9.90;7.20;;;17.40;99.90;;;;;;5020464;28;20501;-43
2022/04/28 06:49:49;;;;;;;17.00;6.23;;;18.00;99.90;;;;;;5020667;28;20632;-46
2022/04/28 06:52:16;;;;;;;7.10;5.60;;;18.20;99.90;;;;;;5020544;28;20444;-49
2022/04/28 06:54:43;;;;;;;11.57;6.67;;;19.40;99.90;;;;;;5020207;28;20568;-45
2022/04/28 06:57:10;;;;;;;9.60;6.40;;;19.90;96.20;;;;;;5020131;28;20767;-43
2022/04/28 06:59:38;;;;;;;6.97;5.13;;;20.10;96.00;;;;;;5020314;28;20525;-48
2022/04/28 07:02:06;;;;;;;6.57;4.77;;;21.30;92.90;;;;;;5019377;28;20478;-46
2022/04/28 07:04:33;;;;;;;7.47;6.63;;;21.80;89.60;;;;;;5019872;28;20430;-44
2022/04/28 07:07:01;;;;;;;5.70;5.13;;;21.10;90.60;;;;;;5020120;28;20456;-49
2022/04/28 07:09:28;;;;;;;6.03;4.97;;;22.10;88.60;;;;;;5019826;28;20836;-46
2022/04/28 07:12:15;;;;;;;6.30;4.63;;;23.10;80.90;;;;;;5019908;28;20429;-50
2022/04/28 07:14:43;;;;;;;4.63;4.17;;;23.30;76.70;;;;;;5018676;28;20489;-46
2022/04/28 07:17:11;;;;;;;23.20;6.00;;;22.60;77.10;;;;;;5020465;28;20411;-44
2022/04/28 07:19:38;;;;;;;10.67;4.33;;;23.60;75.80;;;;;;5020560;28;20800;-45
2022/04/28 07:22:05;;;;;;;7.20;4.27;;;24.50;72.10;;;;;;5020645;28;20486;-45
2022/04/28 07:24:32;;;;;;;3.80;3.50;;;23.70;72.60;;;;;;5019867;28;20741;-46
2022/04/28 07:27:02;;;;;;;5.27;4.87;;;23.20;72.00;;;;;;5020011;28;20431;-44
2022/04/28 07:29:35;;;;;;;4.50;4.10;;;24.20;69.40;;;;;;5019750;28;20939;-47
2022/04/28 07:32:03;;;;;;;4.00;3.70;;;24.50;65.90;;;;;;5019623;28;20434;-47
2022/04/28 07:34:31;;;;;;;4.83;4.33;;;24.30;67.60;;;;;;5019311;28;20776;-45
2022/04/28 07:36:59;;;;;;;5.23;4.80;;;25.00;63.60;;;;;;5019771;28;20430;-48
2022/04/28 07:39:26;;;;;;;5.40;4.20;;;24.10;65.30;;;;;;5019743;28;20512;-45
2022/04/28 07:41:54;;;;;;;4.83;3.50;;;23.70;67.00;;;;;;5019730;28;20803;-46
2022/04/28 07:44:21;;;;;;;5.67;4.20;;;24.80;64.60;;;;;;5020163;28;20426;-54
2022/04/28 07:46:48;;;;;;;3.40;3.10;;;25.90;62.60;;;;;;5019541;28;20445;-47
2022/04/28 07:49:15;;;;;;;3.83;2.17;;;26.90;57.30;;;;;;5019876;28;20459;-45
2022/04/28 07:51:42;;;;;;;4.03;2.63;;;25.90;57.30;;;;;;5021579;28;20676;-45
2022/04/28 07:54:09;;;;;;;3.13;2.83;;;25.60;56.80;;;;;;5023749;28;20442;-45
2022/04/28 07:56:37;;;;;;;3.63;2.43;;;25.90;55.80;;;;;;5023388;28;20473;-45
2022/04/28 07:59:07;;;;;;;2.47;2.10;;;25.60;57.40;;;;;;5023543;28;20439;-49
2022/04/28 08:01:51;;;;;;;2.20;1.97;;;25.40;57.30;;;;;;5023725;28;20474;-45
2022/04/28 08:04:18;;;;;;;4.07;2.00;;;25.70;56.40;;;;;;5023472;28;20430;-45
2022/04/28 08:06:45;;;;;;;2.20;2.00;;;26.00;54.80;;;;;;5023532;28;20438;-52
2022/04/28 08:09:13;;;;;;;2.57;2.37;;;24.60;56.10;;;;;;5023213;28;20560;-50
2022/04/28 08:11:41;;;;;;;2.13;1.93;;;25.30;55.90;;;;;;5023731;28;20450;-49
2022/04/28 08:14:09;;;;;;;2.90;2.10;;;25.30;54.90;;;;;;5023154;28;20773;-45
2022/04/28 08:16:36;;;;;;;2.40;2.20;;;24.60;55.40;;;;;;5023370;28;20680;-47
2022/04/28 08:19:03;;;;;;;2.70;2.50;;;24.20;55.30;;;;;;5023063;28;20478;-44
2022/04/28 08:21:31;;;;;;;3.37;3.07;;;22.10;58.20;;;;;;5023057;28;20474;-48
2022/04/28 08:23:58;;;;;;;6.33;2.73;;;22.50;59.80;;;;;;5022736;28;20480;-45
2022/04/28 08:26:25;;;;;;;3.00;2.67;;;24.00;57.30;;;;;;5014359;28;20445;-50
2022/04/28 08:28:52;;;;;;;3.50;3.13;;;25.50;54.90;;;;;;5023072;28;20451;-50
2022/04/28 08:31:19;;;;;;;2.67;2.40;;;25.70;55.30;;;;;;5022752;28;20430;-49
2022/04/28 08:33:48;;;;;;;2.97;2.53;;;25.50;55.10;;;;;;5022992;28;20438;-44
2022/04/28 08:36:16;;;;;;;2.60;2.40;;;25.30;54.10;;;;;;5022900;28;20563;-44
2022/04/28 08:38:43;;;;;;;4.33;2.90;;;26.10;53.50;;;;;;5022869;28;20828;-48
2022/04/28 08:41:15;;;;;;;4.20;3.03;;;26.40;53.80;;;;;;5022557;28;20503;-48
2022/04/28 08:43:43;;;;;;;2.40;2.20;;;25.90;54.00;;;;;;5022879;28;20567;-46
2022/04/28 08:48:57;;;;;;;3.03;2.77;;;26.60;53.10;;;;;;5023239;28;20596;-48
2022/04/28 08:51:25;;;;;;;3.17;2.83;;;25.50;53.00;;;;;;5022552;28;20439;-47
2022/04/28 08:53:53;;;;;;;3.87;2.37;;;25.30;53.70;;;;;;5022961;28;20866;-47
2022/04/28 08:56:22;;;;;;;3.60;3.30;;;25.30;53.40;;;;;;5022540;28;20437;-50
2022/04/28 08:58:49;;;;;;;2.87;2.60;;;24.80;54.80;;;;;;5022121;28;20522;-46
2022/04/28 09:01:16;;;;;;;2.83;2.63;;;23.20;56.20;;;;;;5022574;28;20442;-45
2022/04/28 09:03:44;;;;;;;4.60;3.63;;;22.90;58.90;;;;;;5018759;28;20450;-47
2022/04/28 09:06:34;;;;;;;4.40;3.30;;;23.20;58.10;;;;;;5022234;28;20737;-45
2022/04/28 09:09:09;;;;;;;12.03;2.77;;;23.60;58.40;;;;;;5022496;28;20450;-45
2022/04/28 09:11:39;;;;;;;3.77;3.43;;;24.20;57.20;;;;;;5022082;28;20692;-46
2022/04/28 09:14:17;;;;;;;4.17;2.93;;;24.60;55.30;;;;;;5022267;28;20438;-48
2022/04/28 09:16:59;;;;;;;2.50;2.30;;;25.00;54.80;;;;;;5022359;28;20587;-45
2022/04/28 09:19:34;;;;;;;2.93;2.67;;;23.50;57.50;;;;;;5021900;28;20462;-47
2022/04/28 09:22:13;;;;;;;6.23;3.60;;;23.20;58.00;;;;;;5013810;28;20492;-46
2022/04/28 09:24:45;;;;;;;3.97;3.60;;;22.70;59.90;;;;;;5016422;28;20637;-48
2022/04/28 09:27:14;;;;;;;3.77;3.43;;;22.10;59.90;;;;;;5021793;28;20692;-47
2022/04/28 09:29:41;;;;;;;6.73;3.90;;;20.90;63.10;;;;;;5022081;28;20462;-50
2022/04/28 09:32:15;;;;;;;7.00;3.47;;;19.80;64.50;;;;;;5019798;28;20887;-46
2022/04/28 09:35:09;;;;;;;2.70;2.50;;;18.50;67.60;;;;;;5013541;28;20433;-48
2022/04/28 09:37:38;;;;;;;8.40;3.43;;;18.00;70.00;;;;;;5021504;28;20454;-43
2022/04/28 09:42:53;;;;;;;4.03;3.63;;;17.70;70.60;;;;;;5009748;28;20883;-44
2022/04/28 09:45:23;;;;;;;3.90;3.50;;;17.40;72.00;;;;;;5021557;28;20819;-45
2022/04/28 09:48:03;;;;;;;5.90;3.70;;;17.80;72.40;;;;;;5021663;28;20431;-44
2022/04/28 09:50:31;;;;;;;5.93;3.67;;;18.00;70.90;;;;;;5021708;28;20407;-48
2022/04/28 09:53:05;;;;;;;3.83;3.47;;;17.90;70.20;;;;;;5021790;28;20416;-48
2022/04/28 09:55:34;;;;;;;4.70;4.03;;;17.90;71.10;;;;;;5021084;28;20777;-48
2022/04/28 09:58:06;;;;;;;3.67;3.37;;;17.70;70.00;;;;;;5020642;28;20454;-44
2022/04/28 10:00:33;;;;;;;4.13;3.73;;;17.80;71.30;;;;;;5020866;28;20454;-46
2022/04/28 10:03:05;;;;;;;5.40;3.77;;;18.10;73.30;;;;;;5021193;28;20534;-46
2022/04/28 10:05:34;;;;;;;3.70;2.70;;;18.00;70.90;;;;;;5020294;28;20489;-47
2022/04/28 10:08:02;;;;;;;4.80;2.73;;;18.10;72.50;;;;;;5021571;28;20425;-45
2022/04/28 10:10:31;;;;;;;3.30;3.00;;;18.30;72.10;;;;;;5020869;28;20424;-45
2022/04/28 10:13:00;;;;;;;4.40;3.77;;;18.50;70.60;;;;;;5013321;28;20614;-48
2022/04/28 10:15:30;;;;;;;4.20;2.83;;;18.50;70.70;;;;;;5020225;28;20426;-46
2022/04/28 10:18:10;;;;;;;2.87;2.67;;;18.20;69.90;;;;;;5021089;28;20439;-48
2022/04/28 10:20:41;;;;;;;4.67;4.27;;;18.20;71.90;;;;;;5020631;28;20483;-49
2022/04/28 10:35:03;;;;;;;2.70;2.43;;;18.20;72.80;;;;;;5015319;28;20415;-42
2022/04/28 10:37:41;;;;;;;3.13;2.77;;;18.20;71.40;;;;;;4998262;28;20439;-43
2022/04/28 10:40:16;;;;;;;4.17;2.67;;;18.20;71.40;;;;;;5001287;28;20430;-44
2022/04/28 10:42:47;;;;;;;3.27;2.97;;;18.10;71.30;;;;;;5001368;28;20643;-44
2022/04/28 10:45:22;;;;;;;4.63;3.23;;;18.00;73.40;;;;;;5000590;28;20415;-45
2022/04/28 10:51:16;;;;;;;3.33;2.67;;;18.20;73.00;;;;;;5001315;28;20406;-45
2022/04/28 10:53:58;;;;;;;3.47;2.70;;;18.40;71.30;;;;;;5000470;28;20452;-47
2022/04/28 10:56:28;;;;;;;3.53;3.33;;;17.70;72.60;;;;;;5011337;28;20401;-45
2022/04/28 10:58:59;;;;;;;3.03;2.83;;;17.50;74.50;;;;;;5016635;28;20781;-45
2022/04/28 11:01:33;;;;;;;4.37;3.97;;;17.30;73.50;;;;;;5020297;28;20422;-45
2022/04/28 11:04:06;;;;;;;3.37;3.10;;;17.40;74.10;;;;;;5020405;28;20498;-46
2022/04/28 11:06:37;;;;;;;3.43;3.17;;;17.70;74.60;;;;;;5020492;28;20405;-43
2022/04/28 11:09:06;;;;;;;2.90;2.60;;;17.40;74.20;;;;;;5020400;28;20833;-43
2022/04/28 11:11:43;;;;;;;3.20;2.90;;;17.40;72.80;;;;;;5020247;28;20445;-45
2022/04/28 11:14:12;;;;;;;4.50;3.33;;;17.30;73.10;;;;;;5020147;28;20414;-44
2022/04/28 11:16:41;;;;;;;2.87;2.67;;;17.30;73.70;;;;;;5020514;28;20412;-43
2022/04/28 11:19:09;;;;;;;3.57;3.27;;;17.60;73.80;;;;;;5020099;28;20668;-49
2022/04/28 11:21:43;;;;;;;8.13;3.60;;;17.80;73.70;;;;;;5020000;28;20424;-46
2022/04/28 11:24:10;;;;;;;3.10;2.67;;;18.00;73.20;;;;;;5020267;28;20456;-45
2022/04/28 11:26:38;;;;;;;3.50;3.20;;;18.20;72.20;;;;;;5019971;28;20524;-49
2022/04/28 11:29:09;;;;;;;3.13;2.40;;;18.20;70.10;;;;;;5020301;28;20451;-43
2022/04/28 11:31:46;;;;;;;2.93;2.63;;;18.00;71.30;;;;;;5020510;28;20449;-47
2022/04/28 11:34:14;;;;;;;3.10;2.80;;;18.00;73.90;;;;;;5020521;28;20417;-48
2022/04/28 11:36:41;;;;;;;4.47;3.20;;;18.40;72.90;;;;;;5019548;28;20528;-50
2022/04/28 11:39:10;;;;;;;3.53;3.23;;;18.40;70.60;;;;;;5019786;28;20469;-47
2022/04/28 11:41:40;;;;;;;4.80;3.10;;;18.40;70.30;;;;;;5019735;28;20469;-47
2022/04/28 11:44:16;;;;;;;4.40;3.80;;;18.40;71.20;;;;;;5019977;28;20475;-49
2022/04/28 11:46:51;;;;;;;4.13;3.73;;;18.30;70.10;;;;;;5019863;28;20753;-44
2022/04/28 11:49:20;;;;;;;3.20;2.90;;;18.00;71.60;;;;;;5020303;28;20490;-48
2022/04/28 11:51:47;;;;;;;3.13;2.63;;;18.00;72.50;;;;;;5019810;28;20472;-47
2022/04/28 11:54:27;;;;;;;3.17;2.83;;;18.00;72.80;;;;;;5019956;28;20412;-47
2022/04/28 11:57:09;;;;;;;4.47;3.60;;;18.30;73.40;;;;;;5019372;28;20407;-47
2022/04/28 11:59:38;;;;;;;4.60;2.40;;;18.00;73.30;;;;;;5019813;28;20799;-47
2022/04/28 12:02:32;;;;;;;3.60;3.30;;;18.10;74.30;;;;;;5020045;28;20464;-49
2022/04/28 12:05:03;;;;;;;4.07;3.60;;;18.10;75.50;;;;;;5020228;28;20434;-50
2022/04/28 12:07:32;;;;;;;5.17;3.30;;;18.10;74.50;;;;;;5020141;28;20455;-56
2022/04/28 12:15:34;;;;;;;3.17;2.87;;;18.30;74.00;;;;;;5019237;28;20442;-45
2022/04/28 12:20:59;;;;;;;8.83;2.77;;;18.10;73.90;;;;;;5020647;28;20489;-47
2022/04/28 12:23:37;;;;;;;4.40;3.37;;;18.10;73.90;;;;;;5018990;28;20480;-45
2022/04/28 12:26:06;;;;;;;3.50;2.43;;;18.20;72.00;;;;;;5019202;28;20738;-44
2022/04/28 12:28:39;;;;;;;5.70;3.13;;;18.50;73.70;;;;;;5019424;28;20431;-46
2022/04/28 12:31:08;;;;;;;2.53;2.33;;;18.80;73.30;;;;;;5019685;28;20640;-49
2022/04/28 12:33:56;;;;;;;2.87;2.67;;;19.00;72.40;;;;;;5019400;28;20730;-46
2022/04/28 12:36:24;;;;;;;2.73;2.53;;;19.10;71.10;;;;;;5014909;28;20445;-47
2022/04/28 12:38:59;;;;;;;4.87;2.30;;;19.20;71.00;;;;;;5018325;28;20804;-47
2022/04/28 12:41:27;;;;;;;3.53;2.97;;;19.20;71.00;;;;;;5022881;28;20436;-49
2022/04/28 12:43:57;;;;;;;2.30;2.07;;;19.20;70.20;;;;;;5022861;28;20576;-46
2022/04/28 12:46:39;;;;;;;3.10;2.77;;;19.20;70.40;;;;;;5021942;28;20794;-50
2022/04/28 12:49:08;;;;;;;3.87;3.13;;;19.30;70.50;;;;;;5022360;28;20454;-46
2022/04/28 12:51:47;;;;;;;3.70;3.40;;;19.10;70.90;;;;;;5022086;28;20434;-48
2022/04/28 12:54:20;;;;;;;4.93;3.30;;;18.70;71.60;;;;;;5022235;28;20445;-47
2022/04/28 12:57:03;;;;;;;3.60;3.27;;;18.30;72.90;;;;;;5022025;28;20443;-45
2022/04/28 12:59:36;;;;;;;3.60;3.30;;;17.80;73.90;;;;;;5022281;28;20462;-50
2022/04/28 13:02:05;;;;;;;6.00;3.47;;;17.60;75.30;;;;;;5021987;28;20401;-48
2022/04/28 13:04:37;;;;;;;5.67;3.33;;;17.70;75.50;;;;;;5022405;28;20678;-45
2022/04/28 13:07:08;;;;;;;2.77;2.47;;;17.90;74.70;;;;;;5022169;28;20492;-46
2022/04/28 13:09:37;;;;;;;2.43;2.23;;;17.80;74.00;;;;;;5022137;28;20774;-50
2022/04/28 13:12:06;;;;;;;2.70;2.50;;;17.70;75.30;;;;;;5022839;28;20767;-45
2022/04/28 13:14:33;;;;;;;4.03;2.80;;;17.50;75.40;;;;;;5015306;28;20439;-46
2022/04/28 13:17:01;;;;;;;2.43;2.23;;;17.20;75.20;;;;;;5007250;28;20424;-45
2022/04/28 13:19:28;;;;;;;5.53;2.40;;;17.10;76.80;;;;;;5006209;28;20435;-50
2022/04/28 13:21:55;;;;;;;2.30;2.10;;;17.20;75.50;;;;;;5008266;28;20447;-45
2022/04/28 13:24:23;;;;;;;8.73;2.80;;;17.50;75.20;;;;;;5001894;28;20892;-51
2022/04/28 13:26:50;;;;;;;2.90;2.20;;;17.80;74.80;;;;;;5003202;28;20517;-46
2022/04/28 13:29:17;;;;;;;8.03;3.07;;;18.00;75.40;;;;;;5007384;28;20465;-45
2022/04/28 13:31:44;;;;;;;2.63;2.43;;;18.20;74.80;;;;;;5005325;28;20479;-47
2022/04/28 13:34:12;;;;;;;2.80;2.60;;;17.90;75.40;;;;;;5005107;28;20420;-47
2022/04/28 13:36:39;;;;;;;5.03;3.10;;;17.70;74.80;;;;;;5001913;28;20511;-45